Time;durP1;ratioP1;P1;durP2;ratioP2;P2;SDS_P1;SDS_P2;PMS_P1;PMS_P2;Temp;Humidity;BMP_temperature;BMP_pressure;BME280_temperature;BME280_humidity;BME280_pressure;Samples;Min_cycle;Max_cycle;Signal;HPM_P1;HPM_P2
2022/07/01 00:00:09;;;;;;;7.97;5.00;;;14.50;99.90;;;;;;5035067;28;20163;-80
2022/07/01 00:02:35;;;;;;;8.37;5.80;;;14.60;99.90;;;;;;5035432;28;20165;-81
2022/07/01 00:05:01;;;;;;;8.77;5.30;;;14.60;99.90;;;;;;5034570;28;20170;-80
2022/07/01 00:07:27;;;;;;;6.07;5.10;;;14.60;99.90;;;;;;5034876;28;20522;-84
2022/07/01 00:09:52;;;;;;;8.13;5.20;;;14.60;99.90;;;;;;5034991;28;20229;-83
2022/07/01 00:12:18;;;;;;;7.07;5.07;;;14.70;99.90;;;;;;5035387;28;20704;-86
2022/07/01 00:14:44;;;;;;;8.47;5.00;;;14.60;99.90;;;;;;5036265;28;20199;-87
2022/07/01 00:17:10;;;;;;;9.60;6.20;;;14.60;99.90;;;;;;5039157;28;20241;-85
2022/07/01 00:19:36;;;;;;;8.17;5.17;;;14.60;99.90;;;;;;5035978;28;20281;-80
2022/07/01 00:22:02;;;;;;;7.47;5.17;;;14.60;99.90;;;;;;5034491;28;20173;-82
2022/07/01 00:24:27;;;;;;;8.40;5.60;;;14.60;99.90;;;;;;5017467;28;20211;-87
2022/07/01 00:26:54;;;;;;;9.23;5.63;;;14.60;99.90;;;;;;5035924;28;20169;-85
2022/07/01 00:29:19;;;;;;;7.17;5.60;;;14.70;99.90;;;;;;5043466;28;20210;-79
2022/07/01 00:31:46;;;;;;;9.30;5.93;;;14.80;99.90;;;;;;5036766;28;20220;-80
2022/07/01 00:34:12;;;;;;;9.20;5.77;;;14.80;99.90;;;;;;5039175;28;20170;-80
2022/07/01 00:36:37;;;;;;;7.53;5.30;;;14.70;99.90;;;;;;5035051;28;20636;-82
2022/07/01 00:39:03;;;;;;;10.17;5.73;;;14.70;99.90;;;;;;5034825;28;20284;-81
2022/07/01 00:41:29;;;;;;;8.03;5.00;;;14.60;99.90;;;;;;5034136;28;20164;-80
2022/07/01 00:43:55;;;;;;;8.37;5.90;;;14.60;99.90;;;;;;5034373;28;20262;-82
2022/07/01 00:46:21;;;;;;;9.47;5.60;;;14.50;99.90;;;;;;5035506;28;20192;-82
2022/07/01 00:48:47;;;;;;;8.43;5.40;;;14.50;99.90;;;;;;5038869;28;20213;-80
2022/07/01 00:51:13;;;;;;;8.93;6.17;;;14.60;99.90;;;;;;5035033;28;20164;-83
2022/07/01 00:53:40;;;;;;;10.47;6.63;;;14.50;99.90;;;;;;5033262;28;20538;-82
2022/07/01 00:56:05;;;;;;;8.60;6.10;;;14.50;99.90;;;;;;5033033;28;20169;-81
2022/07/01 00:58:31;;;;;;;11.60;6.53;;;14.50;99.90;;;;;;5033562;28;20228;-81
2022/07/01 01:00:58;;;;;;;10.03;6.50;;;14.50;99.90;;;;;;5033174;28;20654;-81
2022/07/01 01:03:25;;;;;;;11.63;5.93;;;14.40;99.90;;;;;;5033751;28;20175;-82
2022/07/01 01:05:51;;;;;;;9.53;6.13;;;14.40;99.90;;;;;;5015911;28;20269;-83
2022/07/01 01:08:17;;;;;;;8.53;6.77;;;14.40;99.90;;;;;;5033551;28;20696;-83
2022/07/01 01:10:43;;;;;;;12.73;7.60;;;14.30;99.90;;;;;;5015583;28;20744;-85
2022/07/01 01:13:09;;;;;;;13.10;7.37;;;14.30;99.90;;;;;;5033456;28;20269;-81
2022/07/01 01:15:37;;;;;;;13.33;6.73;;;14.30;99.90;;;;;;5033046;28;20215;-84
2022/07/01 01:18:03;;;;;;;10.90;7.00;;;14.30;99.90;;;;;;5033764;28;20190;-85
2022/07/01 01:20:36;;;;;;;12.20;7.07;;;14.30;99.90;;;;;;5034016;28;20175;-86
2022/07/01 01:23:04;;;;;;;12.03;7.13;;;14.20;99.90;;;;;;5034142;28;20222;-86
2022/07/01 01:25:31;;;;;;;10.80;6.90;;;14.30;99.90;;;;;;5015407;28;20329;-82
2022/07/01 01:27:57;;;;;;;12.97;7.77;;;14.20;99.90;;;;;;5037559;28;20263;-80
2022/07/01 01:30:22;;;;;;;12.83;7.13;;;14.30;99.90;;;;;;5049445;28;20179;-83
2022/07/01 01:32:49;;;;;;;13.20;7.83;;;14.40;99.90;;;;;;5043137;28;20177;-84
2022/07/01 01:35:15;;;;;;;12.10;7.47;;;14.30;99.90;;;;;;5033383;28;20575;-86
2022/07/01 01:37:41;;;;;;;13.40;7.33;;;14.30;99.90;;;;;;5033507;28;20312;-87
2022/07/01 01:40:08;;;;;;;12.27;8.10;;;14.40;99.90;;;;;;5034337;28;20173;-80
2022/07/01 01:42:35;;;;;;;16.27;8.20;;;14.40;99.90;;;;;;5033367;28;20344;-85
2022/07/01 01:45:02;;;;;;;12.43;7.60;;;14.40;99.90;;;;;;5033304;28;20178;-81
2022/07/01 01:47:28;;;;;;;15.87;8.13;;;14.30;99.90;;;;;;5034880;28;20172;-82
2022/07/01 01:49:53;;;;;;;12.10;7.90;;;14.40;99.90;;;;;;5033110;28;20174;-86
2022/07/01 01:52:19;;;;;;;13.47;8.53;;;14.50;99.90;;;;;;5017305;28;20719;-81
2022/07/01 01:54:46;;;;;;;14.60;8.33;;;14.40;99.90;;;;;;5033989;28;20219;-84
2022/07/01 01:57:12;;;;;;;15.33;8.40;;;14.30;99.90;;;;;;5033392;28;20375;-80
2022/07/01 01:59:38;;;;;;;13.83;8.03;;;14.30;99.90;;;;;;5033935;28;20198;-79
2022/07/01 02:02:05;;;;;;;16.67;8.53;;;14.30;99.90;;;;;;5038780;28;20180;-79
2022/07/01 02:04:31;;;;;;;11.83;8.07;;;14.30;99.90;;;;;;5043043;28;20172;-79
2022/07/01 02:06:57;;;;;;;16.60;8.33;;;14.40;99.90;;;;;;5044411;28;20185;-78
2022/07/01 02:09:23;;;;;;;15.83;8.70;;;14.40;99.90;;;;;;5039339;28;20215;-81
2022/07/01 02:11:48;;;;;;;13.57;8.10;;;14.40;99.90;;;;;;5038678;28;20174;-81
2022/07/01 02:14:14;;;;;;;13.83;7.60;;;14.40;99.90;;;;;;5041661;28;20628;-81
2022/07/01 02:16:40;;;;;;;11.20;7.50;;;14.50;99.90;;;;;;5041918;28;20167;-80
2022/07/01 02:19:05;;;;;;;15.83;8.50;;;14.60;99.90;;;;;;5055477;28;20177;-77
2022/07/01 02:21:32;;;;;;;11.50;7.27;;;14.60;99.90;;;;;;5050841;28;20167;-80
2022/07/01 02:23:58;;;;;;;11.23;7.67;;;14.60;99.90;;;;;;5036186;28;20165;-77
2022/07/01 02:26:24;;;;;;;11.10;7.30;;;14.60;99.90;;;;;;5033898;28;20210;-82
2022/07/01 02:29:22;;;;;;;13.30;8.00;;;14.60;99.90;;;;;;5040758;28;20209;-79
2022/07/01 02:31:57;;;;;;;11.93;8.23;;;14.60;99.90;;;;;;5037868;28;20172;-84
2022/07/01 02:34:57;;;;;;;11.37;7.27;;;14.60;99.90;;;;;;5020134;28;20182;-81
2022/07/01 02:37:49;;;;;;;11.50;7.40;;;14.40;99.90;;;;;;5037545;28;20162;-82
2022/07/01 02:40:14;;;;;;;12.57;7.07;;;14.40;99.90;;;;;;5021155;28;20217;-80
2022/07/01 02:42:40;;;;;;;11.90;7.70;;;14.30;99.90;;;;;;5021676;28;20172;-86
2022/07/01 02:45:10;;;;;;;11.20;7.37;;;14.30;99.90;;;;;;5042983;28;20222;-78
2022/07/01 02:47:38;;;;;;;12.80;7.17;;;14.20;99.90;;;;;;5052256;28;20179;-79
2022/07/01 02:50:05;;;;;;;9.53;6.67;;;14.10;99.90;;;;;;5052123;28;20184;-77
2022/07/01 02:52:32;;;;;;;12.13;6.67;;;14.10;99.90;;;;;;5048256;28;20202;-79
2022/07/01 02:54:57;;;;;;;11.27;7.17;;;14.10;99.90;;;;;;5054454;28;20166;-82
2022/07/01 02:57:23;;;;;;;12.90;6.50;;;14.10;99.90;;;;;;5055705;28;20156;-79
2022/07/01 02:59:50;;;;;;;13.37;7.33;;;14.10;99.90;;;;;;5053958;28;20194;-78
2022/07/01 03:02:17;;;;;;;10.07;6.60;;;14.20;99.90;;;;;;5054224;28;20155;-78
2022/07/01 03:04:43;;;;;;;13.57;7.30;;;14.20;99.90;;;;;;5051738;28;20207;-85
2022/07/01 03:07:09;;;;;;;12.70;6.37;;;14.30;99.90;;;;;;5046996;28;20593;-86
2022/07/01 03:09:43;;;;;;;10.33;6.23;;;14.20;99.90;;;;;;5039711;28;20230;-79
2022/07/01 03:12:34;;;;;;;11.37;7.07;;;14.30;99.90;;;;;;5037024;28;20516;-81
2022/07/01 03:15:04;;;;;;;8.87;6.23;;;14.10;99.90;;;;;;5036508;28;20190;-78
2022/07/01 03:17:50;;;;;;;10.90;5.83;;;14.20;99.90;;;;;;5018076;28;20241;-81
2022/07/01 03:20:17;;;;;;;11.90;6.73;;;14.30;99.90;;;;;;5035502;28;20194;-81
2022/07/01 03:22:47;;;;;;;8.63;5.97;;;14.30;99.90;;;;;;5019613;28;20162;-82
2022/07/01 03:25:13;;;;;;;10.00;7.77;;;14.30;99.90;;;;;;5038755;28;20197;-78
2022/07/01 03:27:47;;;;;;;12.87;8.37;;;14.10;99.90;;;;;;5039310;28;20213;-86
2022/07/01 03:30:14;;;;;;;17.13;9.77;;;14.10;99.90;;;;;;5038124;28;20164;-86
2022/07/01 03:32:40;;;;;;;16.47;9.53;;;14.10;99.90;;;;;;5019863;28;20180;-86
2022/07/01 03:35:35;;;;;;;13.13;8.73;;;14.00;99.90;;;;;;5036488;28;20202;-80
2022/07/01 03:37:52;;;;;;;14.20;8.17;;;14.00;99.90;;;;;;5035645;28;20721;-83
2022/07/01 03:40:18;;;;;;;11.27;7.37;;;14.00;99.90;;;;;;5037935;28;20166;-87
2022/07/01 03:42:43;;;;;;;13.47;7.23;;;14.10;99.90;;;;;;5037568;28;20176;-81
2022/07/01 03:45:09;;;;;;;11.13;6.33;;;14.00;99.90;;;;;;5035954;28;20663;-80
2022/07/01 03:47:36;;;;;;;7.90;5.80;;;14.10;99.90;;;;;;5036787;28;20251;-81
2022/07/01 03:50:02;;;;;;;10.53;6.27;;;14.20;99.90;;;;;;5036804;28;20270;-81
2022/07/01 03:52:27;;;;;;;9.77;5.43;;;14.20;99.90;;;;;;5037085;28;20211;-81
2022/07/01 03:54:53;;;;;;;9.87;5.93;;;14.10;99.90;;;;;;5049059;28;20155;-79
2022/07/01 03:57:19;;;;;;;9.43;5.30;;;14.10;99.90;;;;;;5039126;28;20178;-83
2022/07/01 03:59:46;;;;;;;9.73;5.40;;;14.10;99.90;;;;;;5054675;28;20147;-81
2022/07/01 04:02:12;;;;;;;11.03;4.77;;;14.10;99.90;;;;;;5050733;28;20175;-80
2022/07/01 04:04:37;;;;;;;9.80;5.30;;;14.10;99.90;;;;;;5052284;28;20174;-80
2022/07/01 04:07:06;;;;;;;8.30;5.43;;;14.00;99.90;;;;;;5053380;28;20178;-85
2022/07/01 04:09:32;;;;;;;13.00;6.37;;;14.10;99.90;;;;;;5053191;28;20223;-83
2022/07/01 04:11:59;;;;;;;11.20;7.67;;;14.10;99.90;;;;;;5038771;28;20174;-85
2022/07/01 04:14:25;;;;;;;11.53;7.17;;;14.10;99.90;;;;;;5037368;28;20183;-80
2022/07/01 04:16:52;;;;;;;10.60;6.87;;;14.20;99.90;;;;;;5035009;28;20171;-81
2022/07/01 04:19:17;;;;;;;8.37;5.83;;;14.20;99.90;;;;;;5035099;28;20182;-77
2022/07/01 04:24:30;;;;;;;12.97;6.17;;;14.00;99.90;;;;;;5035693;28;20176;-86
2022/07/01 04:26:55;;;;;;;10.50;6.50;;;14.10;99.90;;;;;;5033488;28;20152;-82
2022/07/01 04:29:21;;;;;;;9.57;6.00;;;14.20;99.90;;;;;;5034457;28;20682;-86
2022/07/01 04:31:49;;;;;;;9.20;5.93;;;14.30;99.90;;;;;;5034137;28;20182;-79
2022/07/01 04:34:15;;;;;;;12.40;5.37;;;14.40;99.90;;;;;;5033501;28;20156;-83
2022/07/01 04:36:41;;;;;;;9.20;4.87;;;14.50;99.90;;;;;;5015857;28;20178;-81
2022/07/01 04:39:07;;;;;;;8.23;4.67;;;14.30;99.90;;;;;;5033951;28;20580;-80
2022/07/01 04:44:18;;;;;;;10.83;4.37;;;14.10;99.90;;;;;;5034474;28;20250;-79
2022/07/01 04:46:44;;;;;;;12.43;4.47;;;14.10;99.90;;;;;;5033271;28;20225;-81
2022/07/01 04:49:10;;;;;;;7.97;3.67;;;14.20;99.90;;;;;;5033715;28;20230;-79
2022/07/01 04:51:36;;;;;;;13.83;4.70;;;14.20;99.90;;;;;;5033532;28;20240;-82
2022/07/01 04:54:06;;;;;;;8.23;4.03;;;14.10;99.90;;;;;;5033853;28;20180;-85
2022/07/01 04:56:33;;;;;;;8.17;4.37;;;14.20;99.90;;;;;;5033671;28;20175;-85
2022/07/01 04:59:00;;;;;;;9.00;4.27;;;14.20;99.90;;;;;;5034071;28;20173;-82
2022/07/01 05:01:25;;;;;;;14.13;4.63;;;14.20;99.90;;;;;;5032909;28;20174;-84
2022/07/01 05:03:51;;;;;;;9.90;4.83;;;14.20;99.90;;;;;;5034339;28;20173;-79
2022/07/01 05:06:17;;;;;;;5.87;3.80;;;14.40;99.90;;;;;;5032504;28;20169;-81
2022/07/01 05:08:43;;;;;;;9.87;4.00;;;14.50;99.90;;;;;;5033736;28;20206;-80
2022/07/01 05:11:09;;;;;;;7.20;3.60;;;14.60;99.90;;;;;;5034702;28;20168;-86
2022/07/01 05:13:35;;;;;;;10.23;3.40;;;14.70;99.90;;;;;;5033821;28;20519;-85
2022/07/01 05:16:01;;;;;;;6.67;3.13;;;14.40;99.90;;;;;;5034987;28;20162;-86
2022/07/01 05:23:55;;;;;;;10.63;3.70;;;14.50;99.90;;;;;;5033695;28;20190;-82
2022/07/01 05:26:21;;;;;;;7.00;3.50;;;14.60;99.90;;;;;;5033042;28;20163;-78
2022/07/01 05:28:47;;;;;;;11.90;3.73;;;14.60;99.90;;;;;;5040873;28;20206;-78
2022/07/01 05:31:13;;;;;;;8.93;3.40;;;14.70;99.90;;;;;;5041401;28;20166;-79
2022/07/01 05:33:39;;;;;;;8.80;3.33;;;14.80;99.90;;;;;;5041024;28;20183;-87
2022/07/01 05:36:05;;;;;;;8.70;3.50;;;15.10;99.90;;;;;;5033815;28;20257;-86
2022/07/01 05:38:41;;;;;;;9.50;3.93;;;15.00;99.90;;;;;;5034306;28;20214;-86
2022/07/01 05:41:07;;;;;;;7.40;3.43;;;15.10;99.90;;;;;;5034303;28;20210;-83
2022/07/01 05:43:33;;;;;;;7.97;3.60;;;15.10;99.90;;;;;;5037041;28;20581;-81
2022/07/01 05:45:59;;;;;;;6.70;3.40;;;15.00;99.90;;;;;;5038861;28;20176;-84
2022/07/01 05:48:25;;;;;;;10.93;3.70;;;15.20;99.90;;;;;;5020008;28;20225;-82
2022/07/01 05:50:51;;;;;;;6.37;3.30;;;15.20;99.90;;;;;;5040358;28;20657;-78
2022/07/01 05:53:17;;;;;;;12.47;3.73;;;15.30;99.90;;;;;;5040109;28;20181;-84
2022/07/01 05:55:43;;;;;;;8.63;3.13;;;15.50;99.90;;;;;;5041192;28;20701;-83
2022/07/01 05:58:13;;;;;;;8.73;3.20;;;15.50;99.80;;;;;;5041389;28;20271;-84
2022/07/01 06:00:42;;;;;;;9.87;3.13;;;15.50;99.80;;;;;;5040399;28;20173;-83
2022/07/01 06:03:14;;;;;;;7.13;3.27;;;15.50;99.30;;;;;;5025249;28;20510;-87
2022/07/01 06:05:41;;;;;;;9.07;3.40;;;15.50;99.90;;;;;;5042950;28;20173;-87
2022/07/01 06:08:07;;;;;;;7.73;3.50;;;15.40;99.90;;;;;;5038651;28;20201;-85
2022/07/01 06:10:36;;;;;;;9.03;3.07;;;15.50;99.90;;;;;;5037669;28;20240;-86
2022/07/01 06:13:03;;;;;;;10.23;3.77;;;15.60;99.90;;;;;;5040419;28;20162;-85
2022/07/01 06:15:29;;;;;;;9.97;3.37;;;15.70;99.90;;;;;;5040749;28;20178;-83
2022/07/01 06:17:56;;;;;;;10.77;3.10;;;15.70;99.90;;;;;;5040446;28;20161;-81
2022/07/01 06:20:22;;;;;;;9.00;3.13;;;15.60;99.90;;;;;;5040078;28;20239;-83
2022/07/01 06:22:48;;;;;;;7.60;3.00;;;15.60;99.90;;;;;;5042525;28;20158;-81
2022/07/01 06:25:14;;;;;;;6.50;3.17;;;15.60;99.70;;;;;;5037838;28;20172;-79
2022/07/01 06:27:41;;;;;;;9.37;3.07;;;15.80;98.90;;;;;;5036160;28;20162;-80
2022/07/01 06:30:08;;;;;;;6.27;3.13;;;16.00;97.80;;;;;;5033955;28;20185;-81
2022/07/01 06:32:34;;;;;;;7.67;2.87;;;16.00;97.20;;;;;;5034572;28;20258;-77
2022/07/01 06:35:00;;;;;;;5.30;2.93;;;15.90;97.70;;;;;;5035041;28;20178;-80
2022/07/01 06:37:25;;;;;;;9.00;3.07;;;15.90;96.80;;;;;;5036270;28;20173;-80
2022/07/01 06:39:57;;;;;;;4.83;2.27;;;15.90;97.00;;;;;;5036975;28;20224;-78
2022/07/01 06:42:28;;;;;;;8.70;3.20;;;16.00;95.90;;;;;;5038103;28;20170;-81
2022/07/01 06:44:57;;;;;;;5.17;2.60;;;16.10;95.50;;;;;;5036553;28;20200;-81
2022/07/01 06:47:23;;;;;;;9.13;2.63;;;16.20;96.40;;;;;;5036229;28;20217;-81
2022/07/01 06:49:48;;;;;;;6.13;2.80;;;16.40;96.60;;;;;;5036196;28;20222;-79
2022/07/01 06:52:15;;;;;;;7.10;2.73;;;16.20;96.40;;;;;;5036819;28;20248;-79
2022/07/01 06:54:41;;;;;;;7.33;2.50;;;16.30;96.30;;;;;;5037431;28;20228;-82
2022/07/01 06:57:08;;;;;;;6.83;2.20;;;16.30;92.60;;;;;;5038817;28;20170;-80
2022/07/01 06:59:34;;;;;;;9.27;3.20;;;16.30;91.50;;;;;;5037104;28;20177;-81
2022/07/01 07:01:59;;;;;;;8.20;2.70;;;16.30;94.10;;;;;;5036969;28;20578;-82
2022/07/01 07:04:25;;;;;;;6.87;2.50;;;16.40;93.40;;;;;;5036312;28;20174;-85
2022/07/01 07:06:51;;;;;;;9.27;2.40;;;16.40;93.70;;;;;;5038137;28;20162;-85
2022/07/01 07:09:17;;;;;;;5.77;2.47;;;16.30;91.70;;;;;;5021258;28;20235;-83
2022/07/01 07:11:43;;;;;;;7.43;2.50;;;16.50;91.70;;;;;;5037419;28;20174;-79
2022/07/01 07:14:08;;;;;;;6.50;2.17;;;16.80;90.90;;;;;;5035848;28;20224;-80
2022/07/01 07:16:35;;;;;;;6.70;2.20;;;17.00;86.80;;;;;;5036288;28;20200;-83
2022/07/01 07:19:01;;;;;;;7.13;2.27;;;17.10;85.30;;;;;;5036588;28;20599;-82
2022/07/01 07:21:26;;;;;;;5.50;2.13;;;17.10;85.00;;;;;;5035990;28;20208;-84
2022/07/01 07:23:53;;;;;;;7.77;1.90;;;17.10;81.70;;;;;;5035975;28;20178;-82
2022/07/01 07:26:18;;;;;;;5.87;2.20;;;17.20;81.50;;;;;;5018053;28;20264;-85
2022/07/01 07:28:44;;;;;;;6.97;2.20;;;17.20;78.40;;;;;;5035530;28;20669;-82
2022/07/01 07:31:10;;;;;;;8.87;2.17;;;17.40;76.30;;;;;;5034948;28;20645;-84
2022/07/01 07:33:35;;;;;;;6.43;2.17;;;17.30;80.60;;;;;;5035733;28;20757;-80
2022/07/01 07:36:01;;;;;;;7.23;2.07;;;17.40;78.30;;;;;;5017672;28;20633;-81
2022/07/01 07:38:27;;;;;;;4.80;2.10;;;17.40;77.80;;;;;;5035360;28;20181;-81
2022/07/01 07:40:52;;;;;;;6.90;1.90;;;17.40;77.50;;;;;;5034938;28;20173;-79
2022/07/01 07:43:18;;;;;;;8.47;1.90;;;17.60;74.40;;;;;;5035014;28;20619;-84
2022/07/01 07:45:44;;;;;;;6.53;2.00;;;17.80;68.50;;;;;;5035238;28;20171;-81
2022/07/01 07:48:09;;;;;;;4.50;1.40;;;17.80;58.90;;;;;;5034915;28;20209;-84
2022/07/01 07:50:35;;;;;;;6.30;1.80;;;17.70;64.20;;;;;;5035409;28;20177;-84
2022/07/01 07:53:01;;;;;;;5.93;1.67;;;17.70;67.20;;;;;;5040981;28;20588;-80
2022/07/01 07:55:28;;;;;;;6.57;1.57;;;17.80;68.70;;;;;;5023667;28;20169;-79
2022/07/01 07:57:54;;;;;;;6.77;1.50;;;17.80;57.60;;;;;;5045972;28;20175;-81
2022/07/01 08:00:21;;;;;;;5.40;1.47;;;17.90;59.90;;;;;;5037356;28;20261;-84
2022/07/01 08:02:47;;;;;;;6.80;1.77;;;17.90;59.40;;;;;;5036676;28;20700;-83
2022/07/01 08:05:14;;;;;;;6.40;1.57;;;17.70;58.50;;;;;;5050519;28;20180;-80
2022/07/01 08:07:41;;;;;;;4.30;1.60;;;17.70;62.90;;;;;;5060291;28;20212;-82
2022/07/01 08:10:10;;;;;;;6.33;1.63;;;17.50;63.70;;;;;;5055652;28;20189;-85
2022/07/01 08:12:36;;;;;;;5.13;1.47;;;17.60;64.50;;;;;;5037308;28;20209;-79
2022/07/01 08:15:03;;;;;;;4.70;1.40;;;17.60;56.30;;;;;;5039864;28;20214;-85
2022/07/01 08:17:30;;;;;;;5.77;1.53;;;17.40;55.70;;;;;;5009896;28;20188;-81
2022/07/01 08:19:56;;;;;;;6.50;1.80;;;17.60;62.50;;;;;;5016858;28;20195;-84
2022/07/01 08:22:21;;;;;;;8.10;1.37;;;17.60;63.10;;;;;;5034946;28;20188;-85
2022/07/01 08:24:48;;;;;;;5.73;1.90;;;17.80;59.30;;;;;;5041933;28;20645;-83
2022/07/01 08:27:22;;;;;;;2.70;1.30;;;17.90;57.50;;;;;;5090482;27;20544;-83
2022/07/01 08:29:49;;;;;;;8.23;2.50;;;17.80;58.40;;;;;;5090322;28;20165;-81
2022/07/01 08:32:15;;;;;;;3.47;1.33;;;17.80;59.10;;;;;;5076405;28;20172;-80
2022/07/01 08:34:40;;;;;;;4.40;1.87;;;18.00;54.00;;;;;;5081232;28;20181;-81
2022/07/01 08:37:06;;;;;;;4.23;1.33;;;18.20;53.70;;;;;;5080034;28;20226;-80
2022/07/01 08:39:33;;;;;;;4.67;1.43;;;18.30;53.00;;;;;;5079796;28;20248;-83
2022/07/01 08:41:59;;;;;;;10.80;1.87;;;18.50;51.10;;;;;;5075056;28;20510;-79
2022/07/01 08:44:25;;;;;;;5.17;1.37;;;18.40;50.30;;;;;;5079913;28;20234;-79
2022/07/01 08:46:51;;;;;;;3.53;1.40;;;18.10;46.40;;;;;;5078769;28;20203;-84
2022/07/01 08:49:17;;;;;;;4.40;1.50;;;18.10;52.30;;;;;;5061808;28;20198;-88
2022/07/01 08:51:44;;;;;;;7.63;1.43;;;18.00;53.60;;;;;;5060571;28;20190;-82
2022/07/01 08:54:11;;;;;;;6.33;1.37;;;18.10;52.40;;;;;;5060996;28;20200;-81
2022/07/01 08:56:44;;;;;;;5.10;1.60;;;18.30;51.90;;;;;;5055050;28;20201;-83
2022/07/01 08:59:12;;;;;;;4.00;1.50;;;18.20;39.70;;;;;;5050248;28;20169;-86
2022/07/01 09:01:39;;;;;;;6.83;1.73;;;18.30;21.60;;;;;;5048570;28;20169;-80
2022/07/01 09:04:19;;;;;;;7.97;1.70;;;18.50;19.70;;;;;;5051086;28;20175;-81
2022/07/01 09:06:45;;;;;;;9.00;1.77;;;18.60;16.30;;;;;;5050727;28;20207;-81
2022/07/01 09:09:13;;;;;;;5.93;1.80;;;18.80;12.60;;;;;;5054137;28;20193;-80
2022/07/01 09:11:53;;;;;;;2.37;1.10;;;19.00;11.00;;;;;;5051833;28;20253;-83
2022/07/01 09:14:24;;;;;;;6.33;1.57;;;19.20;1.00;;;;;;5050019;28;20166;-85
2022/07/01 09:16:51;;;;;;;4.83;1.40;;;19.20;1.00;;;;;;5050508;28;20165;-83
2022/07/01 09:19:19;;;;;;;7.20;1.60;;;19.00;1.00;;;;;;5050408;28;20248;-83
2022/07/01 09:22:04;;;;;;;6.43;1.67;;;18.80;5.20;;;;;;5048269;28;20534;-83
2022/07/01 09:24:38;;;;;;;5.37;1.67;;;18.70;11.00;;;;;;5049721;28;20152;-80
2022/07/01 09:27:09;;;;;;;5.70;1.47;;;19.00;11.20;;;;;;5049003;28;20224;-81
2022/07/01 09:29:37;;;;;;;4.67;1.47;;;19.10;9.40;;;;;;5050037;28;20695;-84
2022/07/01 09:32:06;;;;;;;3.90;1.63;;;19.10;1.00;;;;;;5049815;28;20169;-83
2022/07/01 09:34:52;;;;;;;4.00;1.60;;;19.20;1.00;;;;;;5050309;28;20606;-80
2022/07/01 09:37:20;;;;;;;5.03;1.60;;;19.30;1.00;;;;;;5044203;28;20337;-83
2022/07/01 09:39:55;;;;;;;9.30;1.90;;;19.50;1.00;;;;;;5036589;28;20510;-79
2022/07/01 09:42:22;;;;;;;4.70;1.70;;;19.60;1.00;;;;;;5034432;28;20615;-82
2022/07/01 09:45:14;;;;;;;4.63;1.90;;;19.60;1.00;;;;;;5036265;28;20656;-83
2022/07/01 09:47:44;;;;;;;7.83;1.87;;;19.70;1.00;;;;;;5031542;28;20673;-80
2022/07/01 09:50:10;;;;;;;4.83;2.07;;;19.50;1.00;;;;;;5036126;28;20181;-84
2022/07/01 09:52:37;;;;;;;3.87;1.40;;;19.50;1.00;;;;;;5035677;28;20174;-83
2022/07/01 09:55:05;;;;;;;4.23;1.53;;;19.30;1.00;;;;;;5035662;28;20165;-83
2022/07/01 09:57:30;;;;;;;3.57;1.57;;;19.30;1.00;;;;;;5036003;28;20173;-81
2022/07/01 09:59:56;;;;;;;4.53;1.87;;;19.20;1.00;;;;;;5035920;28;20181;-85
2022/07/01 10:02:22;;;;;;;5.90;2.03;;;19.30;1.00;;;;;;5037709;28;20325;-86
2022/07/01 10:04:53;;;;;;;4.10;1.50;;;19.60;1.00;;;;;;5048104;28;20188;-87
2022/07/01 10:07:55;;;;;;;4.73;2.00;;;19.80;1.00;;;;;;5041644;28;20665;-84
2022/07/01 10:10:51;;;;;;;4.43;1.67;;;19.90;1.00;;;;;;5041804;28;20196;-84
2022/07/01 10:13:24;;;;;;;5.90;2.07;;;20.00;1.00;;;;;;5037261;28;20548;-81
2022/07/01 10:15:50;;;;;;;3.73;1.30;;;20.20;1.00;;;;;;5040712;28;20169;-81
2022/07/01 10:18:24;;;;;;;3.17;1.20;;;20.10;1.00;;;;;;5039637;28;20546;-80
2022/07/01 10:20:51;;;;;;;4.03;1.50;;;20.10;1.00;;;;;;5054444;28;20182;-80
2022/07/01 10:23:21;;;;;;;3.43;1.27;;;20.30;1.00;;;;;;5051776;28;20185;-81
2022/07/01 10:25:51;;;;;;;2.10;1.10;;;20.30;1.00;;;;;;5056889;28;20273;-84
2022/07/01 10:28:25;;;;;;;4.83;1.10;;;20.20;1.00;;;;;;5056588;28;20161;-79
2022/07/01 10:31:13;;;;;;;4.57;1.10;;;19.80;1.00;;;;;;5043935;28;20184;-83
2022/07/01 10:33:39;;;;;;;2.30;1.30;;;19.70;1.00;;;;;;5061680;28;20203;-81
2022/07/01 10:36:06;;;;;;;3.97;1.50;;;19.60;1.00;;;;;;5050808;28;20200;-80
2022/07/01 10:38:32;;;;;;;5.63;1.10;;;19.70;1.00;;;;;;5048984;28;20227;-85
2022/07/01 10:41:09;;;;;;;5.90;1.40;;;19.60;1.00;;;;;;5037179;28;20178;-81
2022/07/01 10:43:41;;;;;;;5.80;1.20;;;19.70;1.00;;;;;;5041930;28;20173;-79
2022/07/01 10:46:07;;;;;;;2.73;1.00;;;19.80;1.00;;;;;;5055333;28;20207;-87
2022/07/01 10:48:34;;;;;;;4.63;1.10;;;19.80;1.00;;;;;;5056997;28;20310;-81
2022/07/01 10:51:00;;;;;;;2.97;1.10;;;19.90;1.00;;;;;;5048972;28;20222;-85
2022/07/01 10:53:46;;;;;;;2.60;1.10;;;19.90;1.00;;;;;;5044018;28;20170;-80
2022/07/01 10:56:17;;;;;;;2.83;1.13;;;19.90;1.00;;;;;;5052302;28;20656;-81
2022/07/01 10:58:42;;;;;;;4.40;1.60;;;19.90;1.00;;;;;;5044813;28;20223;-84
2022/07/01 11:01:09;;;;;;;2.43;1.43;;;19.80;1.00;;;;;;5056475;28;20166;-83
2022/07/01 11:03:36;;;;;;;5.47;1.30;;;19.90;1.00;;;;;;5056988;28;20169;-87
2022/07/01 11:06:02;;;;;;;4.10;1.30;;;19.70;1.00;;;;;;5057690;28;20246;-86
2022/07/01 11:08:28;;;;;;;4.00;1.50;;;19.60;1.00;;;;;;5048651;28;20178;-84
2022/07/01 11:10:57;;;;;;;4.53;1.30;;;19.60;1.00;;;;;;5036791;28;20548;-81
2022/07/01 11:13:25;;;;;;;3.77;1.30;;;19.70;1.00;;;;;;5035659;28;20182;-80
2022/07/01 11:15:52;;;;;;;4.30;1.37;;;20.00;1.00;;;;;;5034942;28;20176;-81
2022/07/01 11:18:18;;;;;;;4.63;1.23;;;20.30;1.00;;;;;;5040534;28;20177;-83
2022/07/01 11:20:44;;;;;;;6.73;1.10;;;20.40;1.00;;;;;;5053264;28;20211;-86
2022/07/01 11:23:11;;;;;;;3.57;1.53;;;20.30;1.00;;;;;;5041531;28;20173;-82
2022/07/01 11:25:37;;;;;;;3.43;1.43;;;20.30;1.00;;;;;;5038980;28;20234;-86
2022/07/01 11:28:02;;;;;;;3.63;1.33;;;20.40;1.00;;;;;;5034122;28;20635;-80
2022/07/01 11:30:28;;;;;;;4.37;1.33;;;20.70;1.00;;;;;;5034193;28;20183;-83
2022/07/01 11:32:56;;;;;;;3.43;1.20;;;20.90;1.00;;;;;;5032709;28;20180;-85
2022/07/01 11:41:07;;;;;;;4.37;1.13;;;21.30;99.90;;;;;;5039922;28;20214;-82
2022/07/01 11:43:38;;;;;;;4.60;1.20;;;21.50;99.90;;;;;;5035329;28;20210;-80
2022/07/01 11:46:06;;;;;;;3.60;1.20;;;21.40;99.90;;;;;;5037540;28;20209;-80
2022/07/01 11:48:37;;;;;;;6.63;1.90;;;21.50;99.90;;;;;;5032884;28;20647;-85
2022/07/01 11:51:22;;;;;;;2.13;0.60;;;21.60;99.90;;;;;;5038064;28;20177;-80
2022/07/01 11:53:54;;;;;;;3.90;1.30;;;21.60;99.90;;;;;;5032529;28;20260;-85
2022/07/01 11:56:35;;;;;;;5.20;1.90;;;21.50;1.00;;;;;;5034698;28;20306;-84
2022/07/01 11:59:02;;;;;;;6.60;2.80;;;21.60;1.00;;;;;;5034734;28;20189;-81
2022/07/01 12:01:30;;;;;;;6.07;2.20;;;21.60;1.00;;;;;;5032940;28;20275;-84
2022/07/01 12:03:59;;;;;;;3.17;0.90;;;21.50;1.00;;;;;;5035020;28;20168;-85
2022/07/01 12:06:26;;;;;;;3.60;1.90;;;21.20;1.00;;;;;;5034091;28;20706;-82
2022/07/01 12:08:53;;;;;;;3.13;0.90;;;21.20;1.00;;;;;;5037284;28;20172;-80
2022/07/01 12:11:21;;;;;;;3.57;1.50;;;21.10;1.00;;;;;;5034298;28;20194;-82
2022/07/01 12:13:48;;;;;;;2.63;1.30;;;21.00;1.00;;;;;;5033821;28;20171;-82
2022/07/01 12:16:14;;;;;;;5.07;1.60;;;21.00;99.90;;;;;;5034724;28;20175;-84
2022/07/01 12:18:59;;;;;;;5.30;3.17;;;21.10;1.00;;;;;;5034673;28;20234;-81
2022/07/01 12:21:27;;;;;;;3.57;1.10;;;21.20;1.00;;;;;;5044776;28;20187;-80
2022/07/01 12:24:07;;;;;;;3.13;1.47;;;21.40;1.00;;;;;;5032763;28;20196;-85
2022/07/01 12:26:33;;;;;;;3.23;0.90;;;21.40;1.00;;;;;;5045105;28;20688;-81
2022/07/01 12:28:59;;;;;;;4.37;1.40;;;21.20;99.90;;;;;;5033373;28;20183;-84
2022/07/01 12:31:25;;;;;;;4.80;1.97;;;21.10;74.70;;;;;;5033885;28;20179;-80
2022/07/01 12:33:52;;;;;;;7.40;3.43;;;21.30;1.00;;;;;;5033778;28;20206;-79
2022/07/01 12:36:17;;;;;;;5.50;2.13;;;21.50;99.90;;;;;;5033716;28;20168;-82
2022/07/01 12:38:44;;;;;;;3.23;1.37;;;21.70;1.00;;;;;;5033141;28;20180;-84
2022/07/01 12:41:30;;;;;;;3.93;1.53;;;21.90;1.00;;;;;;5032986;28;20621;-85
2022/07/01 12:43:55;;;;;;;3.17;1.07;;;22.00;4.70;;;;;;5032098;28;20295;-83
2022/07/01 12:46:28;;;;;;;3.77;1.03;;;22.30;1.00;;;;;;5033746;28;20756;-82
2022/07/01 12:48:54;;;;;;;4.27;1.10;;;22.30;99.90;;;;;;5032117;28;20238;-81
2022/07/01 12:51:20;;;;;;;2.87;1.03;;;22.20;1.00;;;;;;5039352;28;20177;-82
2022/07/01 12:53:46;;;;;;;3.83;1.10;;;22.10;99.90;;;;;;5038241;28;20166;-78
2022/07/01 12:56:23;;;;;;;3.00;0.90;;;22.20;1.00;;;;;;5036481;28;20186;-83
2022/07/01 12:58:52;;;;;;;4.00;1.00;;;22.30;1.00;;;;;;5034457;28;20260;-83
2022/07/01 13:01:19;;;;;;;4.53;1.00;;;22.30;1.00;;;;;;5033526;28;20187;-79
2022/07/01 13:03:46;;;;;;;2.27;0.80;;;22.10;99.90;;;;;;5033637;28;20167;-82
2022/07/01 13:06:12;;;;;;;3.97;1.10;;;22.00;99.90;;;;;;5033369;28;20259;-82